Fountain Green, UT

10:40 AM MDT on October 31, 2014 (GMT -0600)
Carbon County | Change Station
CLOSE
Current Station
Airport
Location: Price,
Elevation: 5955 ft
Nearby Weather Stations

Elev 5955 ft 39.61 °N, 110.75 °W | Updated 47 minutes ago

Partly Cloudy
Partly Cloudy
48 °F
Feels Like 48 °F
N
0
Wind Variable Wind from North

Today
High -- | Low -- °F
--% Chance of Precip.
Yesterday
High -- | Low -- °F
Precip. -- in
7:53 AM 6:26 PM
First Quarter, 57% visible
Pressure 30.19 in
Visibility 10.0 miles
Clouds Clear
Dew Point 22 °F
Humidity 36%
Rainfall 0.00 in
Snow Depth Not available.
UV 2 out of 12
Pollen .90 out of 12
Air Quality Not available.
Flu Activity Not available.
METAR KPUC 311553Z AUTO 00000KT 10SM CLR 09/M06 A3021 RMK AO2 SLP223 T00891056 TSNO

More Conditions Fewer Conditions

Pressure 30.19 in
Visibility 10.0 miles
Clouds Clear
Dew Point 22 °F
Humidity 36%
Rainfall 0.00 in
Snow Depth Not available.
UV 2 out of 12
Pollen .90 out of 12
Air Quality Not available.
Flu Activity Not available.
METAR KPUC 311553Z AUTO 00000KT 10SM CLR 09/M06 A3021 RMK AO2 SLP223 T00891056 TSNO

More Conditions Fewer Conditions

10-Day Weather Forecast

Almanac

Astronomy

Oct. 31, 2014 Rise Set
Actual Time
Civil Twilight
Nautical Twilight
Astronomical Twilight
Moon
Length of Visible Light
Length of Day
Tomorrow will be .
, % of the Moon is Illuminated

Today's Extremes

State Highs State Lows

Community

WunderPhotos

Upload Photos

1,766,657 photos uploaded!

WunderBlogs® & News

Nearby

Air Quality

  Air Quality AQ Index Pollutant
Not available.

Snow Depth

Station Depth Elevation

Earthquake Activity

City Distance Mag. Time & Date
Minimum magnitude displayed is 2.5.

Coastal Water Temperatures

Place Temperature

Nearby Weather Stations